Halstad, Minnesota
Current Conditions -  °F | °C
As of 1:53 PM on Sunday 21 Dec 2014 (Local Time) from KFAR Reporting Station
Haze Haze  
Wind Chill: 25°   Ceiling: 700
Heat Index: 34°   Visibility: 6mi
Dew Point: 30°   Wind: 12mph
Humidity: 85%   Direction: 150°SSE
Pressure: 29.61"   Gusts: 23mph
Location:  47.35°N, 96.83°W
Report Text: KFAR 211953Z 15010G20KT 6SM BR OVC007 01/M01 A2961 RMK AO2 SLP039 T00111011
Loading
Personal Weather Stations






























Interactive Weather Map New forecast layout! Learn more

10-Day Weather Forecast

Advertisements
Track Severe Weather on mobile